createdAt,value
2022-11-13T00:02:36.541Z,2.50
2022-11-13T00:05:21.813Z,2.50
2022-11-13T00:08:06.860Z,2.30
2022-11-13T00:10:52.077Z,2.20
2022-11-13T00:13:37.304Z,2.30
2022-11-13T00:16:22.708Z,2.40
2022-11-13T00:19:07.804Z,2.40
2022-11-13T00:21:54.765Z,2.50
2022-11-13T00:24:40.127Z,2.40
2022-11-13T00:27:25.110Z,2.40
2022-11-13T00:30:13.696Z,2.30
2022-11-13T00:33:01.414Z,2.30
2022-11-13T00:35:46.492Z,2.30
2022-11-13T00:38:31.909Z,2.40
2022-11-13T00:41:17.291Z,2.50
2022-11-13T00:44:04.003Z,2.60
2022-11-13T00:46:49.127Z,2.80
2022-11-13T00:49:34.130Z,2.90
2022-11-13T00:52:19.309Z,2.80
2022-11-13T00:55:04.594Z,2.80
2022-11-13T00:57:49.818Z,2.70
2022-11-13T01:00:34.930Z,2.70
2022-11-13T01:03:20.151Z,2.60
2022-11-13T01:06:19.967Z,2.60
2022-11-13T01:09:05.099Z,2.60
2022-11-13T01:11:50.043Z,2.60
2022-11-13T01:14:35.236Z,2.70
2022-11-13T01:17:20.506Z,2.70
2022-11-13T01:20:06.041Z,2.60
2022-11-13T01:22:51.361Z,2.60
2022-11-13T01:25:36.543Z,2.60
2022-11-13T01:28:21.672Z,2.50
2022-11-13T01:31:11.487Z,2.50
2022-11-13T01:33:57.101Z,2.50
2022-11-13T01:36:42.444Z,2.60
2022-11-13T01:39:27.492Z,2.70
2022-11-13T01:42:12.610Z,2.70
2022-11-13T01:44:59.710Z,2.70
2022-11-13T01:47:44.894Z,2.70
2022-11-13T01:50:29.926Z,2.60
2022-11-13T01:53:15.051Z,2.50
2022-11-13T01:55:59.997Z,2.40
2022-11-13T01:58:48.132Z,2.40
2022-11-13T02:01:33.586Z,2.30
2022-11-13T02:04:18.548Z,2.30
2022-11-13T02:07:05.694Z,2.50
2022-11-13T02:09:52.622Z,2.50
2022-11-13T02:12:40.747Z,2.70
2022-11-13T02:15:26.848Z,2.70
2022-11-13T02:18:12.367Z,2.80
2022-11-13T02:21:05.530Z,2.90
2022-11-13T02:23:54.706Z,2.90
2022-11-13T02:26:40.178Z,3.00
2022-11-13T02:29:25.787Z,3.00
2022-11-13T02:32:10.803Z,2.90
2022-11-13T02:34:55.954Z,3.00
2022-11-13T02:37:40.948Z,3.00
2022-11-13T02:40:26.516Z,2.90
2022-11-13T02:43:11.696Z,2.90
2022-11-13T02:45:56.648Z,2.90
2022-11-13T02:48:41.697Z,2.90
2022-11-13T02:51:26.827Z,2.90
2022-11-13T02:54:16.759Z,2.80
2022-11-13T02:57:02.684Z,2.80
2022-11-13T02:59:47.672Z,2.80
2022-11-13T03:02:32.884Z,2.90
2022-11-13T03:05:18.105Z,2.80
2022-11-13T03:08:03.380Z,2.80
2022-11-13T03:10:48.759Z,2.80
2022-11-13T03:13:33.683Z,2.80
2022-11-13T03:16:18.785Z,2.80
2022-11-13T03:19:03.942Z,2.80
2022-11-13T03:21:49.056Z,2.70
2022-11-13T03:24:34.241Z,2.70
2022-11-13T03:27:19.369Z,2.60
2022-11-13T03:30:05.404Z,2.60
2022-11-13T03:32:57.106Z,2.70
2022-11-13T03:35:46.768Z,2.70
2022-11-13T03:38:32.943Z,2.60
2022-11-13T03:41:17.992Z,2.60
2022-11-13T03:44:03.033Z,2.60
2022-11-13T03:46:48.064Z,2.60
2022-11-13T03:49:33.276Z,2.60
2022-11-13T03:52:18.721Z,2.60
2022-11-13T03:55:04.249Z,2.60
2022-11-13T03:57:49.260Z,2.60
2022-11-13T04:00:34.469Z,2.60
2022-11-13T04:03:20.088Z,2.60
2022-11-13T04:06:05.096Z,2.60
2022-11-13T04:08:50.040Z,2.60
2022-11-13T04:11:35.131Z,2.60
2022-11-13T04:14:20.339Z,2.60
2022-11-13T04:17:05.303Z,2.60
2022-11-13T04:19:50.336Z,2.60
2022-11-13T04:22:35.378Z,2.50
2022-11-13T04:25:20.514Z,2.50
2022-11-13T04:28:05.519Z,2.50
2022-11-13T04:30:52.851Z,2.50
2022-11-13T04:33:38.168Z,2.50
2022-11-13T04:36:23.130Z,2.50
2022-11-13T04:39:08.250Z,2.50
2022-11-13T04:42:12.075Z,2.40
2022-11-13T04:44:57.306Z,2.40
2022-11-13T04:47:42.555Z,2.30
2022-11-13T04:50:27.555Z,2.30
2022-11-13T04:53:12.631Z,2.10
2022-11-13T04:55:57.677Z,2.10
2022-11-13T04:58:42.918Z,2.20
2022-11-13T05:01:28.202Z,2.20
2022-11-13T05:04:14.111Z,2.30
2022-11-13T05:06:59.088Z,2.30
2022-11-13T05:09:44.253Z,2.30
2022-11-13T05:12:29.519Z,2.30
2022-11-13T05:15:14.672Z,2.30
2022-11-13T05:17:59.634Z,2.30
2022-11-13T05:20:44.763Z,2.30
2022-11-13T05:23:29.801Z,2.40
2022-11-13T05:26:14.835Z,2.40
2022-11-13T05:29:00.408Z,2.40
2022-11-13T05:31:45.752Z,2.30
2022-11-13T05:34:31.057Z,2.30
2022-11-13T05:37:16.078Z,2.30
2022-11-13T05:40:01.191Z,2.20
2022-11-13T05:42:46.240Z,2.20
2022-11-13T05:45:31.373Z,2.20
2022-11-13T05:48:16.295Z,2.30
2022-11-13T05:51:12.557Z,2.20
2022-11-13T05:53:57.680Z,2.10
2022-11-13T05:56:43.053Z,2.10
2022-11-13T05:59:28.072Z,2.20
2022-11-13T06:02:13.179Z,2.10
2022-11-13T06:04:58.237Z,2.10
2022-11-13T06:07:43.202Z,2.00
2022-11-13T06:10:28.256Z,2.00
2022-11-13T06:13:13.288Z,1.90
2022-11-13T06:16:03.099Z,1.90
2022-11-13T06:18:48.747Z,2.00
2022-11-13T06:21:34.967Z,1.90
2022-11-13T06:24:20.441Z,1.80
2022-11-13T06:27:05.416Z,1.70
2022-11-13T06:29:50.452Z,1.60
2022-11-13T06:32:35.556Z,1.70
2022-11-13T06:35:20.693Z,1.50
2022-11-13T06:38:05.820Z,1.30
2022-11-13T06:40:50.827Z,1.40
2022-11-13T06:43:36.104Z,1.40
2022-11-13T06:46:22.408Z,1.40
2022-11-13T06:49:07.701Z,1.40
2022-11-13T06:51:52.945Z,1.40
2022-11-13T06:54:37.951Z,1.40
2022-11-13T06:57:22.992Z,1.30
2022-11-13T07:00:08.555Z,1.30
2022-11-13T07:02:53.806Z,1.30
2022-11-13T07:05:39.005Z,1.30
2022-11-13T07:08:23.913Z,1.40
2022-11-13T07:11:13.263Z,1.50
2022-11-13T07:13:58.661Z,1.50
2022-11-13T07:17:07.852Z,1.50
2022-11-13T07:19:48.773Z,1.70
2022-11-13T07:22:33.836Z,1.70
2022-11-13T07:25:18.867Z,1.70
2022-11-13T07:28:04.290Z,1.80
2022-11-13T07:30:49.220Z,1.70
2022-11-13T07:33:34.659Z,1.80
2022-11-13T07:36:19.871Z,1.70
2022-11-13T07:39:04.918Z,1.80
2022-11-13T07:41:50.053Z,1.80
2022-11-13T07:44:55.777Z,1.90
2022-11-13T07:47:40.363Z,1.80
2022-11-13T07:50:26.611Z,1.80
2022-11-13T07:53:12.028Z,2.00
2022-11-13T07:56:00.219Z,2.20
2022-11-13T07:58:45.326Z,2.30
2022-11-13T08:01:30.492Z,2.40
2022-11-13T08:04:15.914Z,2.60
2022-11-13T08:07:00.891Z,2.60
2022-11-13T08:09:45.978Z,2.60
2022-11-13T08:12:30.860Z,2.70
2022-11-13T08:15:16.210Z,2.70
2022-11-13T08:18:02.523Z,2.70
2022-11-13T08:20:47.813Z,2.70
2022-11-13T08:23:32.916Z,2.80
2022-11-13T08:26:18.546Z,2.80
2022-11-13T08:29:03.787Z,2.80
2022-11-13T08:31:48.892Z,2.90
2022-11-13T08:34:33.908Z,2.90
2022-11-13T08:37:19.092Z,2.90
2022-11-13T08:40:04.453Z,3.00
2022-11-13T08:42:49.997Z,3.10
2022-11-13T08:45:35.183Z,3.10
2022-11-13T08:48:20.313Z,3.10
2022-11-13T08:51:05.748Z,3.20
2022-11-13T08:53:50.635Z,3.40
2022-11-13T08:56:35.843Z,3.40
2022-11-13T08:59:23.446Z,3.50
2022-11-13T09:02:09.563Z,3.60
2022-11-13T09:04:54.491Z,3.60
2022-11-13T09:07:39.575Z,3.60
2022-11-13T09:10:25.607Z,3.70
2022-11-13T09:13:11.733Z,3.70
2022-11-13T09:16:00.787Z,3.70
2022-11-13T09:18:48.529Z,3.80
2022-11-13T09:21:33.676Z,3.80
2022-11-13T09:24:18.680Z,3.90
2022-11-13T09:27:03.889Z,4.00
2022-11-13T09:29:54.235Z,4.00
2022-11-13T09:32:40.667Z,3.90
2022-11-13T09:35:35.529Z,4.00
2022-11-13T09:38:20.469Z,4.00
2022-11-13T09:41:09.882Z,4.00
2022-11-13T09:44:06.178Z,4.00
2022-11-13T09:46:53.898Z,4.10
2022-11-13T09:49:44.084Z,4.10
2022-11-13T09:52:37.299Z,4.10
2022-11-13T09:55:25.972Z,4.20
2022-11-13T09:58:16.832Z,4.20
2022-11-13T10:01:02.362Z,4.00
2022-11-13T10:04:05.813Z,4.00
2022-11-13T10:07:00.410Z,4.10
2022-11-13T10:09:45.418Z,4.20
2022-11-13T10:12:31.388Z,4.30
2022-11-13T10:15:17.255Z,4.40
2022-11-13T10:18:05.529Z,4.30
2022-11-13T10:21:10.967Z,4.30
2022-11-13T10:23:56.687Z,4.30
2022-11-13T10:26:42.054Z,4.40
2022-11-13T10:29:29.342Z,4.40
2022-11-13T10:32:30.408Z,4.40
2022-11-13T10:35:27.848Z,4.50
2022-11-13T10:38:28.545Z,4.50
2022-11-13T10:41:15.693Z,4.50
2022-11-13T10:44:21.212Z,4.50
2022-11-13T10:47:26.420Z,4.40
2022-11-13T10:50:26.876Z,4.40
2022-11-13T10:53:16.202Z,4.40
2022-11-13T10:56:01.138Z,4.40
2022-11-13T10:58:46.186Z,4.40
2022-11-13T11:01:31.380Z,4.40
2022-11-13T11:04:19.882Z,4.50
2022-11-13T11:07:20.171Z,4.60
2022-11-13T11:10:58.589Z,4.60
2022-11-13T11:13:44.074Z,4.70
2022-11-13T11:16:29.428Z,4.70
2022-11-13T11:19:15.293Z,4.70
2022-11-13T11:22:06.508Z,4.60
2022-11-13T11:24:56.399Z,4.60
2022-11-13T11:27:44.745Z,4.80
2022-11-13T11:30:34.116Z,4.80
2022-11-13T11:33:28.836Z,4.80
2022-11-13T11:36:34.416Z,4.80
2022-11-13T11:39:19.618Z,4.90
2022-11-13T11:42:10.123Z,4.90
2022-11-13T11:45:04.837Z,4.90
2022-11-13T11:47:50.373Z,5.00
2022-11-13T11:50:53.030Z,4.90
2022-11-13T11:53:46.882Z,4.80
2022-11-13T11:56:37.922Z,4.80
2022-11-13T11:59:33.705Z,4.80
2022-11-13T12:02:42.478Z,4.80
2022-11-13T12:05:46.455Z,4.80
2022-11-13T12:08:43.261Z,4.90
2022-11-13T12:11:33.447Z,4.90
2022-11-13T12:14:21.396Z,5.00
2022-11-13T12:17:21.316Z,5.10
2022-11-13T12:20:14.937Z,5.10
2022-11-13T12:23:05.067Z,5.10
2022-11-13T12:26:13.405Z,5.20
2022-11-13T12:29:15.312Z,5.20
2022-11-13T12:32:23.472Z,5.10
2022-11-13T12:35:16.300Z,5.00
2022-11-13T12:38:07.763Z,5.00
2022-11-13T12:41:12.960Z,4.90
2022-11-13T12:44:04.513Z,4.90
2022-11-13T12:46:49.977Z,4.90
2022-11-13T12:49:35.935Z,4.80
2022-11-13T12:52:22.829Z,4.90
2022-11-13T12:55:24.845Z,5.00
2022-11-13T12:58:17.429Z,5.00
2022-11-13T13:01:11.576Z,5.10
2022-11-13T13:04:07.042Z,5.10
2022-11-13T13:06:55.169Z,5.00
2022-11-13T13:09:59.084Z,4.80
2022-11-13T13:12:59.251Z,4.80
2022-11-13T13:16:02.664Z,5.00
2022-11-13T13:18:48.164Z,4.80
2022-11-13T13:21:43.379Z,4.80
2022-11-13T13:24:36.565Z,5.00
2022-11-13T13:27:22.988Z,4.90
2022-11-13T13:30:22.017Z,4.90
2022-11-13T13:33:20.734Z,4.80
2022-11-13T13:36:24.603Z,4.90
2022-11-13T13:39:33.258Z,4.80
2022-11-13T13:42:37.470Z,4.90
2022-11-13T13:45:27.390Z,5.00
2022-11-13T13:48:13.661Z,5.10
2022-11-13T13:50:59.356Z,5.10
2022-11-13T13:53:44.941Z,5.20
2022-11-13T13:56:31.170Z,5.20
2022-11-13T13:59:18.003Z,5.20
2022-11-13T14:02:04.581Z,5.10
2022-11-13T14:04:51.199Z,5.10
2022-11-13T14:07:38.089Z,5.20
2022-11-13T14:10:28.158Z,5.20
2022-11-13T14:13:13.943Z,5.20
2022-11-13T14:16:03.282Z,5.20
2022-11-13T14:18:48.300Z,5.10
2022-11-13T14:21:33.438Z,5.20
2022-11-13T14:24:24.636Z,5.20
2022-11-13T14:27:12.236Z,5.20
2022-11-13T14:29:59.597Z,5.20
2022-11-13T14:32:47.267Z,5.10
2022-11-13T14:35:32.679Z,5.10
2022-11-13T14:38:22.783Z,5.10
2022-11-13T14:41:16.966Z,5.20
2022-11-13T14:44:02.514Z,5.20
2022-11-13T14:46:58.101Z,5.20
2022-11-13T14:49:43.556Z,5.20
2022-11-13T14:52:28.692Z,5.10
2022-11-13T14:55:21.720Z,5.00
2022-11-13T14:58:11.533Z,4.90
2022-11-13T15:00:58.793Z,4.90
2022-11-13T15:03:45.457Z,4.80
2022-11-13T15:06:36.272Z,4.80
2022-11-13T15:09:23.029Z,4.80
2022-11-13T15:12:10.731Z,4.70
2022-11-13T15:14:56.244Z,4.70
2022-11-13T15:17:43.438Z,4.60
2022-11-13T15:20:28.963Z,4.70
2022-11-13T15:23:15.565Z,4.70
2022-11-13T15:26:00.837Z,4.80
2022-11-13T15:28:46.083Z,4.90
2022-11-13T15:31:31.150Z,4.90
2022-11-13T15:34:16.461Z,4.90
2022-11-13T15:37:01.727Z,4.90
2022-11-13T15:39:47.012Z,4.70
2022-11-13T15:42:33.361Z,4.50
2022-11-13T15:45:18.442Z,4.40
2022-11-13T15:48:03.583Z,4.50
2022-11-13T15:50:48.687Z,4.30
2022-11-13T15:53:33.808Z,4.30
2022-11-13T15:56:19.142Z,4.30
2022-11-13T15:59:04.429Z,4.30
2022-11-13T16:01:51.778Z,4.30
2022-11-13T16:04:55.603Z,4.30
2022-11-13T16:07:42.492Z,4.30
2022-11-13T16:10:28.001Z,4.30
2022-11-13T16:13:13.172Z,4.30
2022-11-13T16:15:59.181Z,4.30
2022-11-13T16:18:44.164Z,4.30
2022-11-13T16:21:29.548Z,4.30
2022-11-13T16:24:14.559Z,4.30
2022-11-13T16:27:00.911Z,4.30
2022-11-13T16:29:46.190Z,4.30
2022-11-13T16:32:31.232Z,4.30
2022-11-13T16:35:17.544Z,4.20
2022-11-13T16:38:02.747Z,4.10
2022-11-13T16:40:47.818Z,4.20
2022-11-13T16:43:32.866Z,4.10
2022-11-13T16:46:17.980Z,4.20
2022-11-13T16:49:03.223Z,4.10
2022-11-13T16:51:48.339Z,4.10
2022-11-13T16:54:33.279Z,4.00
2022-11-13T16:57:18.474Z,4.00
2022-11-13T17:00:06.060Z,3.90
2022-11-13T17:02:52.651Z,3.80
2022-11-13T17:05:37.695Z,3.80
2022-11-13T17:08:22.767Z,3.80
2022-11-13T17:11:11.473Z,3.80
2022-11-13T17:13:57.505Z,3.70
2022-11-13T17:16:42.504Z,3.70
2022-11-13T17:19:27.593Z,3.60
2022-11-13T17:22:13.671Z,3.50
2022-11-13T17:24:58.792Z,3.50
2022-11-13T17:27:44.006Z,3.60
2022-11-13T17:30:28.925Z,3.70
2022-11-13T17:33:15.629Z,3.70
2022-11-13T17:36:01.041Z,3.70
2022-11-13T17:38:46.466Z,3.70
2022-11-13T17:41:31.633Z,3.70
2022-11-13T17:44:17.456Z,3.60
2022-11-13T17:47:02.766Z,3.30
2022-11-13T17:49:47.725Z,3.20
2022-11-13T17:52:32.605Z,3.20
2022-11-13T17:55:17.623Z,3.20
2022-11-13T17:58:02.787Z,3.10
2022-11-13T18:00:48.264Z,3.20
2022-11-13T18:03:33.575Z,3.30
2022-11-13T18:06:19.984Z,3.40
2022-11-13T18:09:05.551Z,3.40
2022-11-13T18:11:50.855Z,3.50
2022-11-13T18:14:35.947Z,3.60
2022-11-13T18:17:22.189Z,3.60
2022-11-13T18:20:07.377Z,3.50
2022-11-13T18:22:52.438Z,3.60
2022-11-13T18:25:39.590Z,3.60
2022-11-13T18:28:25.238Z,3.70
2022-11-13T18:31:15.446Z,3.70
2022-11-13T18:34:02.392Z,3.80
2022-11-13T18:36:47.558Z,3.80
2022-11-13T18:39:32.640Z,3.70
2022-11-13T18:42:17.705Z,3.70
2022-11-13T18:45:05.975Z,3.70
2022-11-13T18:47:51.599Z,3.70
2022-11-13T18:50:36.774Z,3.60
2022-11-13T18:53:21.843Z,3.60
2022-11-13T18:56:08.447Z,3.60
2022-11-13T18:58:54.678Z,3.50
2022-11-13T19:01:39.965Z,3.50
2022-11-13T19:04:25.394Z,3.50
2022-11-13T19:07:12.130Z,3.50
2022-11-13T19:09:57.908Z,3.40
2022-11-13T19:12:42.995Z,3.50
2022-11-13T19:15:27.916Z,3.40
2022-11-13T19:18:12.943Z,3.40
2022-11-13T19:20:57.846Z,3.40
2022-11-13T19:23:43.069Z,3.40
2022-11-13T19:26:28.241Z,3.30
2022-11-13T19:29:13.717Z,3.20
2022-11-13T19:31:58.755Z,3.20
2022-11-13T19:34:46.418Z,3.10
2022-11-13T19:37:31.936Z,3.10
2022-11-13T19:40:16.963Z,3.20
2022-11-13T19:43:02.077Z,3.20
2022-11-13T19:45:47.175Z,3.30
2022-11-13T19:48:32.463Z,3.30
2022-11-13T19:51:22.557Z,3.30
2022-11-13T19:54:07.778Z,3.30
2022-11-13T19:56:52.808Z,3.30
2022-11-13T19:59:39.436Z,3.30
2022-11-13T20:02:24.529Z,3.40
2022-11-13T20:05:09.774Z,3.30
2022-11-13T20:07:58.300Z,3.30
2022-11-13T20:10:43.475Z,3.30
2022-11-13T20:13:30.367Z,3.30
2022-11-13T20:16:16.616Z,3.20
2022-11-13T20:19:01.942Z,3.20
2022-11-13T20:21:47.069Z,3.30
2022-11-13T20:24:32.086Z,3.10
2022-11-13T20:27:17.155Z,3.10
2022-11-13T20:30:02.501Z,2.90
2022-11-13T20:32:47.592Z,2.90
2022-11-13T20:35:32.627Z,2.90
2022-11-13T20:38:17.637Z,2.90
2022-11-13T20:41:04.497Z,2.70
2022-11-13T20:43:50.356Z,2.70
2022-11-13T20:46:35.412Z,2.60
2022-11-13T20:49:20.616Z,2.50
2022-11-13T20:52:07.034Z,2.30
2022-11-13T20:54:52.215Z,2.40
2022-11-13T20:57:40.962Z,2.40
2022-11-13T21:00:26.558Z,2.40
2022-11-13T21:03:11.623Z,2.50
2022-11-13T21:05:56.819Z,2.50
2022-11-13T21:08:42.197Z,2.50
2022-11-13T21:11:29.098Z,2.60
2022-11-13T21:14:14.029Z,2.60
2022-11-13T21:16:59.694Z,2.60
2022-11-13T21:19:44.651Z,2.70
2022-11-13T21:22:29.862Z,2.70
2022-11-13T21:25:15.370Z,2.70
2022-11-13T21:28:00.460Z,2.60
2022-11-13T21:30:45.524Z,2.50
2022-11-13T21:33:31.288Z,2.60
2022-11-13T21:36:17.676Z,2.60
2022-11-13T21:39:02.917Z,2.50
2022-11-13T21:41:47.908Z,2.40
2022-11-13T21:44:32.891Z,2.20
2022-11-13T21:47:17.969Z,2.10
2022-11-13T21:50:04.185Z,2.10
2022-11-13T21:52:49.297Z,2.00
2022-11-13T21:55:34.371Z,2.00
2022-11-13T21:58:28.297Z,1.90
2022-11-13T22:01:14.143Z,1.70
2022-11-13T22:03:59.383Z,1.70
2022-11-13T22:06:48.469Z,1.60
2022-11-13T22:09:33.832Z,1.60
2022-11-13T22:12:18.984Z,1.50
2022-11-13T22:15:04.388Z,1.50
2022-11-13T22:17:49.782Z,1.50
2022-11-13T22:20:34.927Z,1.40
2022-11-13T22:23:20.211Z,1.60
2022-11-13T22:26:06.178Z,1.60
2022-11-13T22:28:52.438Z,1.60
2022-11-13T22:31:38.089Z,1.60
2022-11-13T22:34:23.560Z,1.60
2022-11-13T22:37:08.767Z,1.60
2022-11-13T22:39:53.781Z,1.60
2022-11-13T22:42:38.749Z,1.70
2022-11-13T22:45:24.523Z,1.70
2022-11-13T22:48:10.556Z,1.70
2022-11-13T22:50:56.726Z,1.60
2022-11-13T22:53:42.688Z,1.60
2022-11-13T22:56:29.338Z,1.50
2022-11-13T22:59:14.556Z,1.60
2022-11-13T23:01:59.608Z,1.60
2022-11-13T23:04:44.618Z,1.60
2022-11-13T23:07:30.497Z,1.60
2022-11-13T23:10:15.954Z,1.60
2022-11-13T23:13:00.969Z,1.60
2022-11-13T23:15:46.196Z,1.60
2022-11-13T23:18:32.015Z,1.60
2022-11-13T23:21:17.908Z,1.60
2022-11-13T23:24:02.907Z,1.50
2022-11-13T23:26:47.933Z,1.50
2022-11-13T23:29:32.887Z,1.40
2022-11-13T23:32:17.856Z,1.30
2022-11-13T23:35:03.047Z,1.20
2022-11-13T23:37:48.480Z,1.20
2022-11-13T23:40:33.626Z,1.20
2022-11-13T23:43:18.726Z,1.20
2022-11-13T23:46:04.276Z,1.30
2022-11-13T23:48:49.439Z,1.30
2022-11-13T23:51:34.625Z,1.30
2022-11-13T23:54:19.657Z,1.20
2022-11-13T23:57:04.692Z,1.20
2022-11-13T23:59:49.696Z,1.20
